sensor_id;sensor_type;location;lat;lon;timestamp;pressure;altitude;pressure_sealevel;temperature
72405;BMP280;60395;52.020;113.548;2023-08-06T00:00:31;92139.19;;;17.36
72405;BMP280;60395;52.020;113.548;2023-08-06T00:03:34;92147.91;;;17.34
72405;BMP280;60395;52.020;113.548;2023-08-06T00:06:38;92144.06;;;17.31
72405;BMP280;60395;52.020;113.548;2023-08-06T00:09:41;92141.75;;;17.25
72405;BMP280;60395;52.020;113.548;2023-08-06T00:12:44;92136.94;;;17.28
72405;BMP280;60395;52.020;113.548;2023-08-06T00:15:48;92135.59;;;17.29
72405;BMP280;60395;52.020;113.548;2023-08-06T00:18:51;92142.81;;;17.43
72405;BMP280;60395;52.020;113.548;2023-08-06T00:21:55;92149.81;;;17.48
72405;BMP280;60395;52.020;113.548;2023-08-06T00:24:58;92142.69;;;17.45
72405;BMP280;60395;52.020;113.548;2023-08-06T00:28:01;92142.91;;;17.41
72405;BMP280;60395;52.020;113.548;2023-08-06T00:31:04;92145.56;;;17.41
72405;BMP280;60395;52.020;113.548;2023-08-06T00:34:08;92150.97;;;17.39
72405;BMP280;60395;52.020;113.548;2023-08-06T00:37:11;92143.53;;;17.41
72405;BMP280;60395;52.020;113.548;2023-08-06T00:40:14;92146.63;;;17.33
72405;BMP280;60395;52.020;113.548;2023-08-06T00:43:21;92145.25;;;17.34
72405;BMP280;60395;52.020;113.548;2023-08-06T00:46:24;92151.31;;;17.33
72405;BMP280;60395;52.020;113.548;2023-08-06T00:49:28;92150.56;;;17.34
72405;BMP280;60395;52.020;113.548;2023-08-06T00:52:36;92147.72;;;17.38
72405;BMP280;60395;52.020;113.548;2023-08-06T00:55:39;92154.25;;;17.52
72405;BMP280;60395;52.020;113.548;2023-08-06T00:58:44;92141.63;;;17.52
72405;BMP280;60395;52.020;113.548;2023-08-06T01:01:48;92146.72;;;17.56
72405;BMP280;60395;52.020;113.548;2023-08-06T01:04:53;92149.38;;;17.56
72405;BMP280;60395;52.020;113.548;2023-08-06T01:18:10;92160.66;;;17.70
72405;BMP280;60395;52.020;113.548;2023-08-06T01:21:13;92157.25;;;17.71
72405;BMP280;60395;52.020;113.548;2023-08-06T01:24:17;92157.66;;;17.63
72405;BMP280;60395;52.020;113.548;2023-08-06T01:27:38;92164.25;;;17.64
72405;BMP280;60395;52.020;113.548;2023-08-06T01:30:46;92166.91;;;17.64
72405;BMP280;60395;52.020;113.548;2023-08-06T01:33:53;92158.31;;;17.63
72405;BMP280;60395;52.020;113.548;2023-08-06T01:36:57;92161.47;;;17.66
72405;BMP280;60395;52.020;113.548;2023-08-06T01:40:01;92169.88;;;17.71
72405;BMP280;60395;52.020;113.548;2023-08-06T01:43:05;92174.53;;;17.70
72405;BMP280;60395;52.020;113.548;2023-08-06T01:46:09;92166.38;;;17.61
72405;BMP280;60395;52.020;113.548;2023-08-06T01:49:12;92175.19;;;17.58
72405;BMP280;60395;52.020;113.548;2023-08-06T01:52:16;92175.28;;;17.56
72405;BMP280;60395;52.020;113.548;2023-08-06T01:55:19;92176.06;;;17.54
72405;BMP280;60395;52.020;113.548;2023-08-06T01:58:22;92171.81;;;17.59
72405;BMP280;60395;52.020;113.548;2023-08-06T02:01:26;92172.44;;;17.60
72405;BMP280;60395;52.020;113.548;2023-08-06T02:04:29;92178.50;;;17.58
72405;BMP280;60395;52.020;113.548;2023-08-06T02:07:32;92185.09;;;17.59
72405;BMP280;60395;52.020;113.548;2023-08-06T02:10:37;92194.28;;;17.60
72405;BMP280;60395;52.020;113.548;2023-08-06T02:13:41;92183.25;;;17.56
72405;BMP280;60395;52.020;113.548;2023-08-06T02:16:51;92175.19;;;17.58
72405;BMP280;60395;52.020;113.548;2023-08-06T02:19:54;92180.91;;;17.62
72405;BMP280;60395;52.020;113.548;2023-08-06T02:22:58;92181.13;;;17.71
72405;BMP280;60395;52.020;113.548;2023-08-06T02:26:02;92177.63;;;17.75
72405;BMP280;60395;52.020;113.548;2023-08-06T02:29:05;92180.47;;;17.83
72405;BMP280;60395;52.020;113.548;2023-08-06T02:32:09;92179.44;;;17.78
72405;BMP280;60395;52.020;113.548;2023-08-06T02:35:12;92176.59;;;17.70
72405;BMP280;60395;52.020;113.548;2023-08-06T02:38:16;92175.19;;;17.71
72405;BMP280;60395;52.020;113.548;2023-08-06T02:41:19;92179.84;;;17.70
72405;BMP280;60395;52.020;113.548;2023-08-06T02:44:22;92180.91;;;17.75
72405;BMP280;60395;52.020;113.548;2023-08-06T02:47:26;92176.88;;;17.76
72405;BMP280;60395;52.020;113.548;2023-08-06T02:50:29;92174.75;;;17.79
72405;BMP280;60395;52.020;113.548;2023-08-06T02:53:32;92176.78;;;17.78
72405;BMP280;60395;52.020;113.548;2023-08-06T02:56:43;92170.38;;;17.86
72405;BMP280;60395;52.020;113.548;2023-08-06T02:59:54;92171.34;;;17.93
72405;BMP280;60395;52.020;113.548;2023-08-06T03:02:58;92171.19;;;18.07
72405;BMP280;60395;52.020;113.548;2023-08-06T03:06:29;92179.78;;;18.20
72405;BMP280;60395;52.020;113.548;2023-08-06T03:09:35;92174.31;;;18.22
72405;BMP280;60395;52.020;113.548;2023-08-06T03:12:38;92172.66;;;18.17
72405;BMP280;60395;52.020;113.548;2023-08-06T03:15:42;92175.84;;;18.19
72405;BMP280;60395;52.020;113.548;2023-08-06T03:18:47;92167.41;;;18.27
72405;BMP280;60395;52.020;113.548;2023-08-06T03:21:51;92172.38;;;18.33
72405;BMP280;60395;52.020;113.548;2023-08-06T03:24:56;92167.41;;;18.27
72405;BMP280;60395;52.020;113.548;2023-08-06T03:28:00;92167.22;;;18.32
72405;BMP280;60395;52.020;113.548;2023-08-06T03:31:04;92163.44;;;18.39
72405;BMP280;60395;52.020;113.548;2023-08-06T03:34:16;92169.59;;;18.48
72405;BMP280;60395;52.020;113.548;2023-08-06T03:37:21;92164.25;;;18.71
72405;BMP280;60395;52.020;113.548;2023-08-06T03:40:26;92166.69;;;18.75
72405;BMP280;60395;52.020;113.548;2023-08-06T03:43:31;92162.56;;;18.89
72405;BMP280;60395;52.020;113.548;2023-08-06T03:46:35;92158.28;;;18.94
72405;BMP280;60395;52.020;113.548;2023-08-06T03:49:40;92166.91;;;18.94
72405;BMP280;60395;52.020;113.548;2023-08-06T03:52:44;92162.84;;;18.95
72405;BMP280;60395;52.020;113.548;2023-08-06T03:55:48;92172.22;;;18.94
72405;BMP280;60395;52.020;113.548;2023-08-06T03:58:51;92171.97;;;18.98
72405;BMP280;60395;52.020;113.548;2023-08-06T04:01:54;92171.06;;;18.91
72405;BMP280;60395;52.020;113.548;2023-08-06T04:04:58;92162.94;;;18.93
72405;BMP280;60395;52.020;113.548;2023-08-06T04:08:01;92171.91;;;18.88
72405;BMP280;60395;52.020;113.548;2023-08-06T04:11:05;92174.31;;;18.81
72405;BMP280;60395;52.020;113.548;2023-08-06T04:14:08;92182.13;;;18.73
72405;BMP280;60395;52.020;113.548;2023-08-06T04:17:11;92174.09;;;18.62
72405;BMP280;60395;52.020;113.548;2023-08-06T04:20:15;92176.44;;;18.56
72405;BMP280;60395;52.020;113.548;2023-08-06T04:23:18;92174.34;;;18.58
72405;BMP280;60395;52.020;113.548;2023-08-06T04:26:22;92168.13;;;18.62
72405;BMP280;60395;52.020;113.548;2023-08-06T04:29:25;92170.34;;;18.70
72405;BMP280;60395;52.020;113.548;2023-08-06T04:32:28;92178.84;;;18.72
72405;BMP280;60395;52.020;113.548;2023-08-06T04:35:33;92174.50;;;18.67
72405;BMP280;60395;52.020;113.548;2023-08-06T04:38:37;92174.72;;;18.63
72405;BMP280;60395;52.020;113.548;2023-08-06T04:41:41;92175.81;;;18.55
72405;BMP280;60395;52.020;113.548;2023-08-06T04:44:44;92178.28;;;18.47
72405;BMP280;60395;52.020;113.548;2023-08-06T04:47:49;92168.03;;;18.41
72405;BMP280;60395;52.020;113.548;2023-08-06T04:50:52;92169.28;;;18.42
72405;BMP280;60395;52.020;113.548;2023-08-06T04:53:57;92166.38;;;18.46
72405;BMP280;60395;52.020;113.548;2023-08-06T04:57:00;92167.31;;;18.53
72405;BMP280;60395;52.020;113.548;2023-08-06T05:00:03;92164.28;;;18.48
72405;BMP280;60395;52.020;113.548;2023-08-06T05:03:07;92163.31;;;18.41
72405;BMP280;60395;52.020;113.548;2023-08-06T05:06:10;92159.81;;;18.45
72405;BMP280;60395;52.020;113.548;2023-08-06T05:09:14;92156.56;;;18.55
72405;BMP280;60395;52.020;113.548;2023-08-06T05:12:17;92159.84;;;18.55
72405;BMP280;60395;52.020;113.548;2023-08-06T05:15:20;92171.94;;;18.65
72405;BMP280;60395;52.020;113.548;2023-08-06T05:18:24;92170.47;;;18.78
72405;BMP280;60395;52.020;113.548;2023-08-06T05:21:27;92166.66;;;18.98
72405;BMP280;60395;52.020;113.548;2023-08-06T05:24:30;92170.00;;;19.20
72405;BMP280;60395;52.020;113.548;2023-08-06T05:27:33;92163.06;;;19.25
72405;BMP280;60395;52.020;113.548;2023-08-06T05:30:40;92172.19;;;19.18
72405;BMP280;60395;52.020;113.548;2023-08-06T05:33:44;92171.88;;;19.11
72405;BMP280;60395;52.020;113.548;2023-08-06T05:36:47;92173.00;;;19.04
72405;BMP280;60395;52.020;113.548;2023-08-06T05:39:51;92163.47;;;18.96
72405;BMP280;60395;52.020;113.548;2023-08-06T05:42:54;92171.19;;;18.89
72405;BMP280;60395;52.020;113.548;2023-08-06T05:45:58;92180.72;;;18.74
72405;BMP280;60395;52.020;113.548;2023-08-06T05:49:01;92166.22;;;18.60
72405;BMP280;60395;52.020;113.548;2023-08-06T05:52:05;92173.22;;;18.43
72405;BMP280;60395;52.020;113.548;2023-08-06T05:55:09;92162.31;;;18.36
72405;BMP280;60395;52.020;113.548;2023-08-06T05:58:12;92170.38;;;18.34
72405;BMP280;60395;52.020;113.548;2023-08-06T06:01:16;92161.66;;;18.36
72405;BMP280;60395;52.020;113.548;2023-08-06T06:04:20;92158.75;;;18.40
72405;BMP280;60395;52.020;113.548;2023-08-06T06:07:23;92162.47;;;18.45
72405;BMP280;60395;52.020;113.548;2023-08-06T06:10:27;92170.00;;;18.53
72405;BMP280;60395;52.020;113.548;2023-08-06T06:13:30;92173.75;;;18.68
72405;BMP280;60395;52.020;113.548;2023-08-06T06:16:34;92166.75;;;18.86
72405;BMP280;60395;52.020;113.548;2023-08-06T06:19:37;92170.97;;;19.04
72405;BMP280;60395;52.020;113.548;2023-08-06T06:22:40;92175.09;;;19.14
72405;BMP280;60395;52.020;113.548;2023-08-06T06:25:47;92159.28;;;19.33
72405;BMP280;60395;52.020;113.548;2023-08-06T06:28:51;92169.19;;;19.45
72405;BMP280;60395;52.020;113.548;2023-08-06T06:31:54;92167.84;;;19.67
72405;BMP280;60395;52.020;113.548;2023-08-06T06:34:58;92167.09;;;19.90
72405;BMP280;60395;52.020;113.548;2023-08-06T06:38:01;92169.88;;;19.98
72405;BMP280;60395;52.020;113.548;2023-08-06T06:41:05;92168.34;;;20.01
72405;BMP280;60395;52.020;113.548;2023-08-06T06:44:08;92170.25;;;20.03
72405;BMP280;60395;52.020;113.548;2023-08-06T06:47:12;92167.09;;;20.11
72405;BMP280;60395;52.020;113.548;2023-08-06T06:50:15;92171.13;;;20.10
72405;BMP280;60395;52.020;113.548;2023-08-06T06:53:18;92172.91;;;20.03
72405;BMP280;60395;52.020;113.548;2023-08-06T06:56:21;92172.44;;;20.00
72405;BMP280;60395;52.020;113.548;2023-08-06T06:59:25;92169.00;;;19.91
72405;BMP280;60395;52.020;113.548;2023-08-06T07:02:28;92179.63;;;19.81
72405;BMP280;60395;52.020;113.548;2023-08-06T07:05:31;92168.09;;;19.74
72405;BMP280;60395;52.020;113.548;2023-08-06T07:08:35;92172.03;;;19.75
72405;BMP280;60395;52.020;113.548;2023-08-06T07:11:38;92174.44;;;19.68
72405;BMP280;60395;52.020;113.548;2023-08-06T07:14:42;92169.84;;;19.56
72405;BMP280;60395;52.020;113.548;2023-08-06T07:17:45;92176.94;;;19.49
72405;BMP280;60395;52.020;113.548;2023-08-06T07:20:50;92169.97;;;19.43
72405;BMP280;60395;52.020;113.548;2023-08-06T07:23:53;92168.03;;;19.42
72405;BMP280;60395;52.020;113.548;2023-08-06T07:26:57;92180.22;;;19.39
72405;BMP280;60395;52.020;113.548;2023-08-06T07:30:00;92181.97;;;19.32
72405;BMP280;60395;52.020;113.548;2023-08-06T07:33:04;92182.34;;;19.26
72405;BMP280;60395;52.020;113.548;2023-08-06T07:36:11;92182.59;;;19.22
72405;BMP280;60395;52.020;113.548;2023-08-06T07:39:14;92187.41;;;19.19
72405;BMP280;60395;52.020;113.548;2023-08-06T07:42:19;92193.72;;;19.14
72405;BMP280;60395;52.020;113.548;2023-08-06T07:45:24;92193.09;;;19.13
72405;BMP280;60395;52.020;113.548;2023-08-06T07:48:28;92183.56;;;19.16
72405;BMP280;60395;52.020;113.548;2023-08-06T07:51:31;92182.59;;;19.22
72405;BMP280;60395;52.020;113.548;2023-08-06T07:54:34;92181.06;;;19.25
72405;BMP280;60395;52.020;113.548;2023-08-06T07:57:38;92175.84;;;19.23
72405;BMP280;60395;52.020;113.548;2023-08-06T08:00:41;92176.97;;;19.15
72405;BMP280;60395;52.020;113.548;2023-08-06T08:03:47;92168.75;;;19.19
72405;BMP280;60395;52.020;113.548;2023-08-06T08:06:50;92185.50;;;19.18
72405;BMP280;60395;52.020;113.548;2023-08-06T08:09:54;92186.97;;;19.15
72405;BMP280;60395;52.020;113.548;2023-08-06T08:12:57;92190.63;;;19.09
72405;BMP280;60395;52.020;113.548;2023-08-06T08:16:01;92188.84;;;19.06
72405;BMP280;60395;52.020;113.548;2023-08-06T08:19:04;92198.59;;;18.98
72405;BMP280;60395;52.020;113.548;2023-08-06T08:22:08;92195.91;;;18.98
72405;BMP280;60395;52.020;113.548;2023-08-06T08:25:11;92192.00;;;18.98
72405;BMP280;60395;52.020;113.548;2023-08-06T08:28:14;92188.19;;;18.94
72405;BMP280;60395;52.020;113.548;2023-08-06T08:31:18;92199.47;;;18.95
72405;BMP280;60395;52.020;113.548;2023-08-06T08:34:21;92196.16;;;18.94
72405;BMP280;60395;52.020;113.548;2023-08-06T08:37:25;92190.09;;;18.96
72405;BMP280;60395;52.020;113.548;2023-08-06T08:40:33;92198.38;;;19.03
72405;BMP280;60395;52.020;113.548;2023-08-06T08:43:40;92197.22;;;19.10
72405;BMP280;60395;52.020;113.548;2023-08-06T08:46:44;92197.63;;;19.15
72405;BMP280;60395;52.020;113.548;2023-08-06T08:49:48;92189.81;;;19.23
72405;BMP280;60395;52.020;113.548;2023-08-06T08:52:52;92192.06;;;19.19
72405;BMP280;60395;52.020;113.548;2023-08-06T08:55:55;92196.41;;;19.14
72405;BMP280;60395;52.020;113.548;2023-08-06T08:58:58;92196.88;;;19.16
72405;BMP280;60395;52.020;113.548;2023-08-06T09:02:02;92189.63;;;19.15
72405;BMP280;60395;52.020;113.548;2023-08-06T09:05:07;92194.84;;;19.17
72405;BMP280;60395;52.020;113.548;2023-08-06T09:08:12;92194.09;;;19.18
72405;BMP280;60395;52.020;113.548;2023-08-06T09:11:19;92198.19;;;19.28
72405;BMP280;60395;52.020;113.548;2023-08-06T09:14:23;92196.47;;;19.45
72405;BMP280;60395;52.020;113.548;2023-08-06T09:17:26;92193.41;;;19.41
72405;BMP280;60395;52.020;113.548;2023-08-06T09:20:31;92190.88;;;19.49
72405;BMP280;60395;52.020;113.548;2023-08-06T09:23:37;92193.69;;;19.47
72405;BMP280;60395;52.020;113.548;2023-08-06T09:26:42;92189.50;;;19.50
72405;BMP280;60395;52.020;113.548;2023-08-06T09:29:45;92185.19;;;19.55
72405;BMP280;60395;52.020;113.548;2023-08-06T09:32:49;92182.91;;;19.60
72405;BMP280;60395;52.020;113.548;2023-08-06T09:35:55;92186.09;;;19.62
72405;BMP280;60395;52.020;113.548;2023-08-06T09:38:58;92179.91;;;19.66
72405;BMP280;60395;52.020;113.548;2023-08-06T09:42:02;92185.13;;;19.79
72405;BMP280;60395;52.020;113.548;2023-08-06T09:45:06;92177.38;;;19.85
72405;BMP280;60395;52.020;113.548;2023-08-06T09:48:10;92176.75;;;19.85
72405;BMP280;60395;52.020;113.548;2023-08-06T09:51:14;92179.91;;;19.87
72405;BMP280;60395;52.020;113.548;2023-08-06T09:54:18;92183.84;;;19.88
72405;BMP280;60395;52.020;113.548;2023-08-06T09:57:30;92182.47;;;20.00
72405;BMP280;60395;52.020;113.548;2023-08-06T10:00:33;92176.75;;;20.16
72405;BMP280;60395;52.020;113.548;2023-08-06T10:03:41;92175.09;;;20.11
72405;BMP280;60395;52.020;113.548;2023-08-06T10:06:48;92184.56;;;20.18
72405;BMP280;60395;52.020;113.548;2023-08-06T10:09:52;92187.50;;;20.14
72405;BMP280;60395;52.020;113.548;2023-08-06T10:12:57;92188.91;;;20.13
72405;BMP280;60395;52.020;113.548;2023-08-06T10:16:02;92190.34;;;20.12
72405;BMP280;60395;52.020;113.548;2023-08-06T10:19:12;92193.75;;;20.21
72405;BMP280;60395;52.020;113.548;2023-08-06T10:22:18;92197.41;;;20.26
72405;BMP280;60395;52.020;113.548;2023-08-06T10:25:24;92193.63;;;20.23
72405;BMP280;60395;52.020;113.548;2023-08-06T10:28:38;92192.97;;;20.23
72405;BMP280;60395;52.020;113.548;2023-08-06T10:32:07;92190.44;;;20.21
72405;BMP280;60395;52.020;113.548;2023-08-06T10:35:28;92194.03;;;20.17
72405;BMP280;60395;52.020;113.548;2023-08-06T10:38:32;92194.50;;;20.09
72405;BMP280;60395;52.020;113.548;2023-08-06T10:41:36;92199.22;;;20.09
72405;BMP280;60395;52.020;113.548;2023-08-06T10:45:12;92200.59;;;20.08
72405;BMP280;60395;52.020;113.548;2023-08-06T10:48:41;92194.66;;;20.07
72405;BMP280;60395;52.020;113.548;2023-08-06T10:51:45;92198.69;;;20.06
72405;BMP280;60395;52.020;113.548;2023-08-06T10:54:49;92190.69;;;20.06
72405;BMP280;60395;52.020;113.548;2023-08-06T10:57:54;92205.16;;;20.09
72405;BMP280;60395;52.020;113.548;2023-08-06T11:00:57;92202.00;;;20.17
72405;BMP280;60395;52.020;113.548;2023-08-06T11:04:02;92198.34;;;20.12
72405;BMP280;60395;52.020;113.548;2023-08-06T11:07:07;92192.34;;;20.01
72405;BMP280;60395;52.020;113.548;2023-08-06T11:10:12;92195.16;;;19.99
72405;BMP280;60395;52.020;113.548;2023-08-06T11:13:20;92196.53;;;19.98
72405;BMP280;60395;52.020;113.548;2023-08-06T11:16:23;92193.09;;;19.89
72405;BMP280;60395;52.020;113.548;2023-08-06T11:19:30;92204.63;;;19.86
72405;BMP280;60395;52.020;113.548;2023-08-06T11:22:33;92199.81;;;19.78
72405;BMP280;60395;52.020;113.548;2023-08-06T11:25:37;92207.53;;;19.71
72405;BMP280;60395;52.020;113.548;2023-08-06T11:28:46;92207.28;;;19.64
72405;BMP280;60395;52.020;113.548;2023-08-06T11:31:50;92203.50;;;19.61
72405;BMP280;60395;52.020;113.548;2023-08-06T11:34:53;92211.31;;;19.53
72405;BMP280;60395;52.020;113.548;2023-08-06T11:38:00;92201.66;;;19.47
72405;BMP280;60395;52.020;113.548;2023-08-06T11:41:03;92217.38;;;19.41
72405;BMP280;60395;52.020;113.548;2023-08-06T11:44:10;92207.22;;;19.33
72405;BMP280;60395;52.020;113.548;2023-08-06T11:47:18;92214.53;;;19.22
72405;BMP280;60395;52.020;113.548;2023-08-06T11:50:25;92214.13;;;19.17
72405;BMP280;60395;52.020;113.548;2023-08-06T11:53:29;92216.25;;;19.15
72405;BMP280;60395;52.020;113.548;2023-08-06T11:56:32;92214.38;;;19.13
72405;BMP280;60395;52.020;113.548;2023-08-06T11:59:37;92216.16;;;19.17
72405;BMP280;60395;52.020;113.548;2023-08-06T12:02:42;92220.72;;;19.18
72405;BMP280;60395;52.020;113.548;2023-08-06T12:05:45;92222.63;;;19.20
72405;BMP280;60395;52.020;113.548;2023-08-06T12:08:50;92225.28;;;19.20
72405;BMP280;60395;52.020;113.548;2023-08-06T12:11:53;92230.75;;;19.18
72405;BMP280;60395;52.020;113.548;2023-08-06T12:14:57;92227.44;;;19.17
72405;BMP280;60395;52.020;113.548;2023-08-06T12:18:01;92234.78;;;19.17
72405;BMP280;60395;52.020;113.548;2023-08-06T12:21:04;92232.22;;;19.15
72405;BMP280;60395;52.020;113.548;2023-08-06T12:24:08;92231.72;;;19.12
72405;BMP280;60395;52.020;113.548;2023-08-06T12:27:13;92236.91;;;19.14
72405;BMP280;60395;52.020;113.548;2023-08-06T12:30:18;92243.03;;;19.13
72405;BMP280;60395;52.020;113.548;2023-08-06T12:33:21;92243.66;;;19.13
72405;BMP280;60395;52.020;113.548;2023-08-06T12:36:24;92247.72;;;19.12
72405;BMP280;60395;52.020;113.548;2023-08-06T12:39:27;92247.06;;;19.12
72405;BMP280;60395;52.020;113.548;2023-08-06T12:42:31;92253.03;;;19.12
72405;BMP280;60395;52.020;113.548;2023-08-06T12:45:35;92252.38;;;19.12
72405;BMP280;60395;52.020;113.548;2023-08-06T12:48:38;92254.41;;;19.11
72405;BMP280;60395;52.020;113.548;2023-08-06T12:51:42;92252.63;;;19.08
72405;BMP280;60395;52.020;113.548;2023-08-06T12:54:45;92254.34;;;19.01
72405;BMP280;60395;52.020;113.548;2023-08-06T12:57:49;92254.59;;;18.96
72405;BMP280;60395;52.020;113.548;2023-08-06T13:00:59;92255.88;;;18.98
72405;BMP280;60395;52.020;113.548;2023-08-06T13:04:03;92248.50;;;18.98
72405;BMP280;60395;52.020;113.548;2023-08-06T13:07:23;92257.78;;;18.99
72405;BMP280;60395;52.020;113.548;2023-08-06T13:10:26;92253.84;;;18.98
72405;BMP280;60395;52.020;113.548;2023-08-06T13:13:31;92259.28;;;18.96
72405;BMP280;60395;52.020;113.548;2023-08-06T13:16:36;92258.88;;;18.91
72405;BMP280;60395;52.020;113.548;2023-08-06T13:19:40;92260.50;;;18.86
72405;BMP280;60395;52.020;113.548;2023-08-06T13:22:43;92266.81;;;18.81
72405;BMP280;60395;52.020;113.548;2023-08-06T13:25:49;92266.38;;;18.76
72405;BMP280;60395;52.020;113.548;2023-08-06T13:28:52;92273.44;;;18.69
72405;BMP280;60395;52.020;113.548;2023-08-06T13:31:55;92287.91;;;18.60
72405;BMP280;60395;52.020;113.548;2023-08-06T13:34:59;92281.13;;;18.50
72405;BMP280;60395;52.020;113.548;2023-08-06T13:38:03;92289.56;;;18.42
72405;BMP280;60395;52.020;113.548;2023-08-06T13:41:06;92287.25;;;18.36
72405;BMP280;60395;52.020;113.548;2023-08-06T13:44:09;92287.16;;;18.25
72405;BMP280;60395;52.020;113.548;2023-08-06T13:47:13;92280.16;;;18.20
72405;BMP280;60395;52.020;113.548;2023-08-06T13:50:16;92283.94;;;18.23
72405;BMP280;60395;52.020;113.548;2023-08-06T13:53:20;92283.94;;;18.23
72405;BMP280;60395;52.020;113.548;2023-08-06T13:56:23;92281.84;;;18.25
72405;BMP280;60395;52.020;113.548;2023-08-06T13:59:26;92284.19;;;18.32
72405;BMP280;60395;52.020;113.548;2023-08-06T14:02:30;92283.31;;;18.35
72405;BMP280;60395;52.020;113.548;2023-08-06T14:05:33;92285.09;;;18.39
72405;BMP280;60395;52.020;113.548;2023-08-06T14:08:37;92282.75;;;18.45
72405;BMP280;60395;52.020;113.548;2023-08-06T14:11:40;92281.38;;;18.46
72405;BMP280;60395;52.020;113.548;2023-08-06T14:14:43;92284.66;;;18.47
72405;BMP280;60395;52.020;113.548;2023-08-06T14:17:47;92280.63;;;18.48
72405;BMP280;60395;52.020;113.548;2023-08-06T14:20:50;92285.75;;;18.39
72405;BMP280;60395;52.020;113.548;2023-08-06T14:23:53;92281.16;;;18.38
72405;BMP280;60395;52.020;113.548;2023-08-06T14:26:56;92288.88;;;18.31
72405;BMP280;60395;52.020;113.548;2023-08-06T14:30:01;92287.03;;;18.27
72405;BMP280;60395;52.020;113.548;2023-08-06T14:33:05;92297.78;;;18.25
72405;BMP280;60395;52.020;113.548;2023-08-06T14:36:27;92299.16;;;18.24
72405;BMP280;60395;52.020;113.548;2023-08-06T14:39:30;92300.53;;;18.23
72405;BMP280;60395;52.020;113.548;2023-08-06T14:42:34;92302.47;;;18.25
72405;BMP280;60395;52.020;113.548;2023-08-06T14:45:38;92294.50;;;18.25
72405;BMP280;60395;52.020;113.548;2023-08-06T14:48:42;92292.69;;;18.21
72405;BMP280;60395;52.020;113.548;2023-08-06T14:51:45;92296.81;;;18.18
72405;BMP280;60395;52.020;113.548;2023-08-06T14:54:49;92290.88;;;18.18
72405;BMP280;60395;52.020;113.548;2023-08-06T14:57:54;92284.81;;;18.19
72405;BMP280;60395;52.020;113.548;2023-08-06T15:00:58;92298.53;;;18.24
72405;BMP280;60395;52.020;113.548;2023-08-06T15:04:01;92285.66;;;18.28
72405;BMP280;60395;52.020;113.548;2023-08-06T15:07:05;92284.78;;;18.32
72405;BMP280;60395;52.020;113.548;2023-08-06T15:10:08;92288.63;;;18.35
72405;BMP280;60395;52.020;113.548;2023-08-06T15:13:14;92286.47;;;18.38
72405;BMP280;60395;52.020;113.548;2023-08-06T15:16:20;92284.38;;;18.40
72405;BMP280;60395;52.020;113.548;2023-08-06T15:19:24;92282.44;;;18.39
72405;BMP280;60395;52.020;113.548;2023-08-06T15:22:28;92283.97;;;18.36
72405;BMP280;60395;52.020;113.548;2023-08-06T15:25:34;92287.44;;;18.32
72405;BMP280;60395;52.020;113.548;2023-08-06T15:28:37;92285.16;;;18.26
72405;BMP280;60395;52.020;113.548;2023-08-06T15:31:40;92288.53;;;18.24
72405;BMP280;60395;52.020;113.548;2023-08-06T15:34:44;92282.91;;;18.18
72405;BMP280;60395;52.020;113.548;2023-08-06T15:37:47;92283.88;;;18.12
72405;BMP280;60395;52.020;113.548;2023-08-06T15:40:51;92288.13;;;18.07
72405;BMP280;60395;52.020;113.548;2023-08-06T15:43:54;92285.88;;;17.99
72405;BMP280;60395;52.020;113.548;2023-08-06T15:46:57;92290.03;;;17.96
72405;BMP280;60395;52.020;113.548;2023-08-06T15:50:00;92286.75;;;17.96
72405;BMP280;60395;52.020;113.548;2023-08-06T15:53:04;92292.06;;;17.96
72405;BMP280;60395;52.020;113.548;2023-08-06T15:56:08;92290.78;;;17.95
72405;BMP280;60395;52.020;113.548;2023-08-06T15:59:27;92293.97;;;17.97
72405;BMP280;60395;52.020;113.548;2023-08-06T16:02:30;92296.00;;;17.97
72405;BMP280;60395;52.020;113.548;2023-08-06T16:05:34;92295.44;;;17.94
72405;BMP280;60395;52.020;113.548;2023-08-06T16:08:40;92289.63;;;17.92
72405;BMP280;60395;52.020;113.548;2023-08-06T16:11:44;92281.75;;;17.90
72405;BMP280;60395;52.020;113.548;2023-08-06T16:14:48;92286.53;;;17.87
72405;BMP280;60395;52.020;113.548;2023-08-06T16:17:52;92289.63;;;17.79
72405;BMP280;60395;52.020;113.548;2023-08-06T16:20:55;92283.53;;;17.68
72405;BMP280;60395;52.020;113.548;2023-08-06T16:23:58;92291.16;;;17.61
72405;BMP280;60395;52.020;113.548;2023-08-06T16:27:02;92286.31;;;17.53
72405;BMP280;60395;52.020;113.548;2023-08-06T16:30:06;92290.63;;;17.46
72405;BMP280;60395;52.020;113.548;2023-08-06T16:33:10;92275.63;;;17.41
72405;BMP280;60395;52.020;113.548;2023-08-06T16:36:13;92289.88;;;17.35
72405;BMP280;60395;52.020;113.548;2023-08-06T16:39:17;92287.22;;;17.35
72405;BMP280;60395;52.020;113.548;2023-08-06T16:42:22;92287.84;;;17.36
72405;BMP280;60395;52.020;113.548;2023-08-06T16:45:26;92283.81;;;17.37
72405;BMP280;60395;52.020;113.548;2023-08-06T16:48:29;92283.72;;;17.39
72405;BMP280;60395;52.020;113.548;2023-08-06T16:51:37;92281.41;;;17.45
72405;BMP280;60395;52.020;113.548;2023-08-06T16:54:40;92278.41;;;17.51
72405;BMP280;60395;52.020;113.548;2023-08-06T16:57:43;92277.16;;;17.50
72405;BMP280;60395;52.020;113.548;2023-08-06T17:00:48;92269.06;;;17.52
72405;BMP280;60395;52.020;113.548;2023-08-06T17:03:51;92273.09;;;17.51
72405;BMP280;60395;52.020;113.548;2023-08-06T17:06:57;92280.97;;;17.53
72405;BMP280;60395;52.020;113.548;2023-08-06T17:10:01;92274.31;;;17.54
72405;BMP280;60395;52.020;113.548;2023-08-06T17:13:04;92272.72;;;17.59
72405;BMP280;60395;52.020;113.548;2023-08-06T17:16:21;92277.81;;;17.63
72405;BMP280;60395;52.020;113.548;2023-08-06T17:19:24;92265.25;;;17.62
72405;BMP280;60395;52.020;113.548;2023-08-06T17:22:28;92270.50;;;17.64